Terminal Aerodrome Forecast
Issued by NWS Grand Forks, ND

Home | Current Version | Previous Version | Text Only | Print | Product List | Glossary On
Versions: 1 2 3 4 5 6 7 8 9 10 11 12 13 14 15 16 17 18
000
FTUS43 KFGF 302328
TAFFAR
TAF
KFAR 302328Z 3100/3124 16014G22KT P6SM VCTS BKN090CB OVC200
     FM310400 13008KT P6SM -TSRA BKN090CB
      TEMPO 3104/3107 4SM -TSRA OVC040CB
     FM310900 16008KT P6SM VCSH BKN025
     FM311200 20010KT P6SM BKN050
     FM311500 20015KT P6SM BKN100
     FM311700 20017KT P6SM SCT200=

USA.gov is the U.S. government's official web portal to all federal, state and local government web resources and services.